Time;durP1;ratioP1;P1;durP2;ratioP2;P2;SDS_P1;SDS_P2;PMS_P1;PMS_P2;Temp;Humidity;BMP_temperature;BMP_pressure;BME280_temperature;BME280_humidity;BME280_pressure;Samples;Min_cycle;Max_cycle;Signal;HPM_P1;HPM_P2
2021/09/12 00:04:14;;;;;;;8.40;7.70;;;20.10;41.10;;;;;;10292229;28;20242;-69
2021/09/12 00:09:18;;;;;;;9.73;8.97;;;19.80;41.40;;;;;;10292687;28;20238;-69
2021/09/12 00:14:21;;;;;;;9.83;9.13;;;19.90;41.40;;;;;;10289844;28;20235;-69
2021/09/12 00:19:25;;;;;;;9.70;8.80;;;19.90;41.60;;;;;;10293834;28;20227;-69
2021/09/12 00:24:29;;;;;;;9.43;8.63;;;19.90;42.10;;;;;;10296601;28;20231;-69
2021/09/12 00:29:32;;;;;;;8.33;7.73;;;19.80;41.70;;;;;;10298951;28;20596;-69
2021/09/12 00:34:36;;;;;;;9.30;8.60;;;19.80;41.80;;;;;;10294416;28;20257;-69
2021/09/12 00:39:40;;;;;;;10.50;9.60;;;19.80;42.40;;;;;;10302034;28;20223;-69
2021/09/12 00:44:43;;;;;;;9.67;8.83;;;19.80;42.10;;;;;;10292463;28;20218;-72
2021/09/12 00:49:47;;;;;;;9.27;8.57;;;19.80;42.10;;;;;;10289067;28;20764;-72
2021/09/12 00:54:51;;;;;;;9.37;8.67;;;19.80;42.50;;;;;;10293770;28;20597;-72
2021/09/12 00:59:55;;;;;;;8.50;7.87;;;19.70;42.40;;;;;;10292947;28;20322;-72
2021/09/12 01:05:00;;;;;;;10.00;9.00;;;19.70;42.30;;;;;;10292880;28;20234;-72
2021/09/12 01:10:04;;;;;;;8.10;7.40;;;19.80;42.50;;;;;;10291294;28;20237;-71
2021/09/12 01:15:08;;;;;;;8.73;7.93;;;19.80;42.20;;;;;;10279124;28;20328;-72
2021/09/12 01:20:14;;;;;;;8.67;7.90;;;19.80;42.30;;;;;;10285113;28;20224;-72
2021/09/12 01:25:19;;;;;;;8.50;7.83;;;19.80;42.40;;;;;;10286077;28;20247;-72
2021/09/12 01:30:22;;;;;;;9.43;8.63;;;19.90;42.30;;;;;;10286392;28;20623;-72
2021/09/12 01:35:25;;;;;;;9.50;8.70;;;19.90;42.10;;;;;;10291330;28;20231;-72
2021/09/12 01:40:30;;;;;;;8.73;7.90;;;19.80;41.80;;;;;;10278300;28;20238;-72
2021/09/12 01:45:33;;;;;;;9.43;8.63;;;19.80;42.20;;;;;;10299083;28;20245;-72
2021/09/12 01:50:36;;;;;;;10.13;9.33;;;19.80;41.90;;;;;;10289922;28;20266;-72
2021/09/12 01:55:41;;;;;;;10.37;9.50;;;19.70;41.70;;;;;;10288893;28;20715;-72
2021/09/12 02:00:45;;;;;;;9.97;9.07;;;19.70;42.00;;;;;;10293313;28;20681;-72
2021/09/12 02:05:48;;;;;;;10.87;9.03;;;19.50;41.70;;;;;;10300405;28;20230;-71
2021/09/12 02:10:53;;;;;;;8.57;7.87;;;19.40;42.10;;;;;;10291798;28;20227;-72
2021/09/12 02:15:57;;;;;;;8.70;8.00;;;19.30;42.50;;;;;;10286909;28;20235;-72
2021/09/12 02:21:00;;;;;;;7.80;7.20;;;19.30;42.30;;;;;;10283888;28;20223;-72
2021/09/12 02:26:05;;;;;;;9.83;8.93;;;19.30;42.40;;;;;;10294642;28;20315;-72
2021/09/12 02:31:08;;;;;;;9.83;9.03;;;19.30;42.80;;;;;;10295851;28;20314;-72
2021/09/12 02:36:11;;;;;;;9.47;8.70;;;19.30;42.40;;;;;;10287441;28;20342;-72
2021/09/12 02:41:16;;;;;;;8.57;7.93;;;19.30;42.40;;;;;;10290178;28;20236;-72
2021/09/12 02:46:19;;;;;;;7.80;7.10;;;19.20;42.80;;;;;;10291363;28;20227;-72
2021/09/12 02:51:22;;;;;;;9.23;8.33;;;19.20;42.60;;;;;;10294109;28;20228;-72
2021/09/12 02:56:27;;;;;;;8.23;7.43;;;19.20;42.80;;;;;;10302879;28;20236;-72
2021/09/12 03:01:30;;;;;;;9.53;8.73;;;19.10;43.00;;;;;;10295495;28;20265;-71
2021/09/12 03:06:34;;;;;;;8.57;7.87;;;19.20;43.00;;;;;;10289352;28;20721;-72
2021/09/12 03:11:38;;;;;;;9.10;8.40;;;19.20;42.90;;;;;;10297756;28;20733;-71
2021/09/12 03:16:42;;;;;;;9.87;9.07;;;19.20;43.30;;;;;;10292384;28;20238;-72
2021/09/12 03:21:45;;;;;;;10.27;9.37;;;19.10;43.60;;;;;;10297343;28;20234;-72
2021/09/12 03:26:49;;;;;;;8.33;7.73;;;19.10;42.90;;;;;;10288807;28;20812;-72
2021/09/12 03:31:53;;;;;;;9.60;8.83;;;19.00;43.20;;;;;;10298330;28;20230;-72
2021/09/12 03:36:56;;;;;;;10.47;9.47;;;19.00;43.10;;;;;;10300884;28;20219;-72
2021/09/12 03:42:01;;;;;;;10.23;9.43;;;19.10;43.10;;;;;;10302567;28;20234;-72
2021/09/12 03:47:04;;;;;;;9.07;8.27;;;19.00;43.50;;;;;;10308092;28;20219;-72
2021/09/12 03:52:08;;;;;;;9.17;8.47;;;19.00;43.20;;;;;;10289890;28;20338;-72
2021/09/12 03:57:12;;;;;;;9.57;8.87;;;19.00;43.40;;;;;;10290206;28;20765;-74
2021/09/12 04:02:16;;;;;;;8.90;8.20;;;19.00;43.90;;;;;;10301828;28;20241;-72
2021/09/12 04:07:19;;;;;;;9.07;8.27;;;19.00;43.50;;;;;;10286710;28;20232;-72
2021/09/12 04:12:24;;;;;;;8.73;7.97;;;19.00;43.50;;;;;;10282669;28;20231;-69
2021/09/12 04:17:27;;;;;;;9.17;8.20;;;18.90;43.80;;;;;;10299794;28;20310;-69
2021/09/12 04:22:30;;;;;;;9.43;8.53;;;19.00;43.60;;;;;;10284156;28;20232;-69
2021/09/12 04:27:35;;;;;;;9.77;8.87;;;19.00;43.70;;;;;;10292172;28;20707;-69
2021/09/12 04:32:38;;;;;;;9.03;8.23;;;19.00;44.00;;;;;;10296251;28;20250;-72
2021/09/12 04:37:41;;;;;;;9.60;8.90;;;19.00;43.70;;;;;;10289288;28;20234;-72
2021/09/12 04:42:46;;;;;;;7.57;6.97;;;19.00;43.70;;;;;;10290934;28;20713;-72
2021/09/12 04:47:49;;;;;;;9.23;8.53;;;18.90;44.00;;;;;;10291719;28;20875;-72
2021/09/12 04:52:53;;;;;;;9.60;8.70;;;18.90;43.90;;;;;;10286321;28;20235;-72
2021/09/12 04:57:57;;;;;;;9.23;8.43;;;19.00;44.10;;;;;;10291298;28;20239;-72
2021/09/12 05:03:00;;;;;;;9.20;8.40;;;19.00;44.50;;;;;;10301055;28;20265;-72
2021/09/12 05:08:05;;;;;;;9.43;8.40;;;18.80;43.90;;;;;;10299968;28;20231;-72
2021/09/12 05:13:09;;;;;;;8.03;7.23;;;19.00;44.30;;;;;;10286204;28;20229;-72
2021/09/12 05:18:13;;;;;;;8.77;7.97;;;19.00;44.50;;;;;;10292663;28;20240;-72
2021/09/12 05:23:16;;;;;;;8.53;7.83;;;19.00;44.30;;;;;;10296746;28;20236;-72
2021/09/12 05:28:21;;;;;;;8.67;7.97;;;19.00;44.40;;;;;;10294657;28;20235;-72
2021/09/12 05:33:24;;;;;;;9.10;8.30;;;19.00;44.80;;;;;;10289711;28;20235;-72
2021/09/12 05:38:27;;;;;;;8.70;8.00;;;19.00;44.60;;;;;;10284230;28;20228;-69
2021/09/12 05:43:32;;;;;;;9.23;8.53;;;19.10;44.70;;;;;;10289540;28;20246;-69
2021/09/12 05:48:35;;;;;;;9.73;8.87;;;19.10;45.20;;;;;;10290009;28;20238;-69
2021/09/12 05:53:38;;;;;;;9.40;8.47;;;19.10;44.60;;;;;;10294195;28;20239;-70
2021/09/12 05:58:43;;;;;;;8.93;8.13;;;19.10;44.70;;;;;;10291189;28;20594;-69
2021/09/12 06:03:46;;;;;;;9.70;8.90;;;19.20;45.20;;;;;;10292522;28;20231;-69
2021/09/12 06:08:50;;;;;;;9.40;8.60;;;19.20;45.00;;;;;;10278710;28;20227;-69
2021/09/12 06:13:54;;;;;;;9.93;9.10;;;19.20;45.00;;;;;;10293341;28;20246;-69
2021/09/12 06:18:57;;;;;;;10.40;9.50;;;19.20;45.60;;;;;;10287592;28;20215;-69
2021/09/12 06:24:01;;;;;;;10.03;9.23;;;19.30;45.40;;;;;;10293773;28;20227;-69
2021/09/12 06:29:05;;;;;;;10.40;9.60;;;19.30;45.50;;;;;;10289956;28;20223;-69
2021/09/12 06:34:08;;;;;;;11.50;10.50;;;19.40;45.90;;;;;;10299434;28;20239;-69
2021/09/12 06:39:12;;;;;;;9.63;8.83;;;19.40;45.80;;;;;;10288382;28;20238;-69
2021/09/12 06:44:17;;;;;;;11.70;10.60;;;19.50;45.90;;;;;;10292481;28;20228;-69
2021/09/12 06:49:20;;;;;;;12.03;11.13;;;19.60;46.70;;;;;;10297477;28;20219;-69
2021/09/12 06:54:24;;;;;;;11.80;10.80;;;19.70;47.00;;;;;;10303424;28;20698;-69
2021/09/12 06:59:28;;;;;;;11.60;10.60;;;19.80;46.40;;;;;;10294529;28;20232;-69
2021/09/12 07:04:31;;;;;;;10.33;9.53;;;19.80;46.80;;;;;;10292570;28;20235;-69
2021/09/12 07:09:35;;;;;;;11.73;10.60;;;19.90;46.50;;;;;;10286245;28;20238;-69
2021/09/12 07:14:39;;;;;;;11.73;10.73;;;20.00;46.60;;;;;;10297591;28;20722;-69
2021/09/12 07:19:43;;;;;;;11.10;10.20;;;20.10;47.40;;;;;;10290876;28;20219;-69
2021/09/12 07:24:46;;;;;;;12.03;11.03;;;20.20;47.00;;;;;;10290243;28;20246;-69
2021/09/12 07:29:50;;;;;;;12.87;11.67;;;20.30;47.20;;;;;;10287836;28;20235;-70
2021/09/12 07:34:53;;;;;;;11.50;10.50;;;20.40;48.10;;;;;;10282638;28;20227;-69
2021/09/12 07:39:57;;;;;;;12.93;11.73;;;20.60;47.60;;;;;;10290437;28;20228;-69
2021/09/12 07:45:01;;;;;;;11.60;10.60;;;20.70;47.70;;;;;;10288973;28;20919;-69
2021/09/12 07:50:06;;;;;;;12.57;11.47;;;20.90;48.40;;;;;;10291513;28;20227;-69
2021/09/12 07:55:10;;;;;;;11.70;10.70;;;21.10;48.20;;;;;;10289164;28;20853;-69
2021/09/12 08:00:15;;;;;;;12.30;11.10;;;21.30;48.10;;;;;;10295942;28;20239;-70
2021/09/12 08:05:18;;;;;;;11.63;10.70;;;21.50;48.30;;;;;;10287610;28;20666;-70
2021/09/12 08:10:22;;;;;;;10.90;9.90;;;21.70;47.90;;;;;;10285984;28;20235;-70
2021/09/12 08:15:26;;;;;;;10.27;9.43;;;21.90;47.90;;;;;;10295588;28;20247;-69
2021/09/12 08:20:29;;;;;;;10.43;9.57;;;22.10;48.00;;;;;;10273988;28;20328;-70
2021/09/12 08:25:33;;;;;;;11.07;9.43;;;22.30;47.40;;;;;;10281745;28;20238;-70
2021/09/12 08:30:37;;;;;;;9.43;8.63;;;22.50;47.20;;;;;;10274964;28;20710;-69
2021/09/12 08:35:41;;;;;;;9.53;8.73;;;22.70;47.20;;;;;;10284727;28;20255;-70
2021/09/12 08:40:44;;;;;;;8.37;7.77;;;22.90;46.80;;;;;;10281778;28;20631;-72
2021/09/12 08:45:49;;;;;;;8.10;7.30;;;23.00;46.30;;;;;;10275708;28;20219;-72
2021/09/12 08:50:52;;;;;;;8.50;7.80;;;23.10;46.00;;;;;;10275443;28;20223;-70
2021/09/12 08:55:56;;;;;;;8.40;7.70;;;23.30;46.20;;;;;;10279042;28;20232;-70
2021/09/12 09:01:01;;;;;;;8.03;7.43;;;23.40;45.90;;;;;;10282970;28;20238;-72
2021/09/12 09:06:16;;;;;;;7.13;6.43;;;23.50;45.30;;;;;;10276808;28;20243;-72
2021/09/12 09:11:29;;;;;;;7.27;6.73;;;23.70;44.80;;;;;;10272571;28;20235;-72
2021/09/12 09:16:33;;;;;;;7.47;6.87;;;23.80;44.30;;;;;;10275920;28;20235;-72
2021/09/12 09:21:38;;;;;;;7.27;6.67;;;23.90;44.50;;;;;;10277302;28;20236;-72
2021/09/12 09:26:44;;;;;;;6.07;5.67;;;24.00;44.30;;;;;;10280205;28;20223;-71
2021/09/12 09:32:00;;;;;;;5.70;5.30;;;24.10;44.40;;;;;;10273357;28;20659;-70
2021/09/12 09:37:11;;;;;;;6.10;5.60;;;24.30;44.00;;;;;;10278976;28;20238;-69
2021/09/12 09:42:34;;;;;;;6.30;5.70;;;24.40;43.10;;;;;;10275389;28;20263;-73
2021/09/12 09:47:41;;;;;;;5.33;4.97;;;24.60;43.00;;;;;;10279356;28;20223;-72
2021/09/12 09:52:46;;;;;;;5.33;4.93;;;24.80;42.60;;;;;;10279041;28;20232;-71
2021/09/12 09:57:51;;;;;;;4.57;4.27;;;25.00;43.00;;;;;;10276677;28;20234;-71
2021/09/12 10:02:56;;;;;;;3.70;3.50;;;25.20;42.50;;;;;;10277492;28;20983;-74
2021/09/12 10:08:02;;;;;;;3.73;3.53;;;25.40;41.20;;;;;;10274431;28;20892;-73
2021/09/12 10:13:06;;;;;;;3.80;3.60;;;25.40;41.20;;;;;;10274973;28;20232;-71
2021/09/12 10:18:12;;;;;;;4.10;3.80;;;25.40;41.20;;;;;;10284326;28;20254;-73
2021/09/12 10:23:16;;;;;;;4.50;4.20;;;25.40;40.90;;;;;;10281408;28;20239;-71
2021/09/12 10:28:28;;;;;;;4.53;4.23;;;25.40;41.20;;;;;;10281544;28;20301;-72
2021/09/12 10:33:33;;;;;;;3.73;3.43;;;25.50;40.50;;;;;;10279284;28;20242;-71
2021/09/12 10:38:37;;;;;;;4.40;4.10;;;25.60;40.80;;;;;;10287448;28;20227;-72
2021/09/12 10:43:42;;;;;;;4.60;4.17;;;25.70;40.70;;;;;;10280195;28;20236;-72
2021/09/12 10:49:10;;;;;;;4.37;4.07;;;25.70;40.20;;;;;;10282742;28;20235;-72
2021/09/12 10:54:13;;;;;;;3.97;3.67;;;25.70;39.60;;;;;;10286309;28;20232;-71
2021/09/12 10:59:17;;;;;;;3.63;3.43;;;25.70;40.40;;;;;;10298685;28;20579;-70
2021/09/12 11:04:29;;;;;;;3.83;3.60;;;25.70;40.90;;;;;;10301400;28;20759;-72
2021/09/12 11:09:33;;;;;;;3.90;3.60;;;26.00;39.70;;;;;;10293279;28;20709;-72
2021/09/12 11:14:37;;;;;;;3.60;3.40;;;26.10;40.00;;;;;;10283039;28;21076;-71
2021/09/12 11:19:53;;;;;;;3.87;3.20;;;26.10;39.60;;;;;;10291116;28;20231;-70
2021/09/12 11:25:03;;;;;;;3.23;3.03;;;26.10;38.70;;;;;;10282026;28;20977;-72
2021/09/12 11:30:09;;;;;;;3.17;2.87;;;26.20;38.00;;;;;;10283313;28;20219;-71
2021/09/12 11:35:16;;;;;;;3.07;2.80;;;26.30;37.80;;;;;;10293585;28;20241;-71
2021/09/12 11:40:23;;;;;;;3.30;3.10;;;26.40;36.90;;;;;;10297739;28;20230;-72
2021/09/12 11:45:26;;;;;;;3.03;2.83;;;26.50;36.90;;;;;;10286916;28;20227;-71
2021/09/12 11:50:33;;;;;;;3.57;3.30;;;26.60;37.70;;;;;;10299316;28;20702;-71
2021/09/12 11:55:40;;;;;;;3.00;2.80;;;26.60;36.00;;;;;;10291193;28;20227;-71
2021/09/12 12:00:46;;;;;;;2.90;2.70;;;26.50;36.80;;;;;;10299036;28;20709;-71
2021/09/12 12:05:51;;;;;;;3.20;3.00;;;26.40;36.50;;;;;;10284123;28;20247;-72
2021/09/12 12:11:05;;;;;;;2.70;2.50;;;26.40;36.70;;;;;;10280808;28;20343;-71
2021/09/12 12:16:08;;;;;;;3.13;2.87;;;26.40;35.50;;;;;;10295339;28;20223;-72
2021/09/12 12:21:15;;;;;;;3.00;2.80;;;26.50;37.10;;;;;;10280215;28;20235;-73
2021/09/12 12:26:20;;;;;;;3.20;2.90;;;26.60;35.80;;;;;;10282754;28;20228;-75
2021/09/12 12:31:23;;;;;;;3.10;2.90;;;26.70;35.70;;;;;;10277098;28;20236;-72
2021/09/12 12:36:28;;;;;;;2.83;2.63;;;26.70;36.10;;;;;;10280998;28;20228;-71
2021/09/12 12:41:31;;;;;;;2.73;2.53;;;26.80;35.50;;;;;;10277433;28;20232;-70
2021/09/12 12:46:44;;;;;;;2.80;2.60;;;26.80;35.60;;;;;;10281419;28;20278;-71
2021/09/12 12:52:02;;;;;;;2.63;2.43;;;26.90;34.70;;;;;;10291076;28;20729;-71
2021/09/12 12:57:12;;;;;;;3.20;3.00;;;26.90;35.30;;;;;;10281744;28;20253;-72
2021/09/12 13:02:16;;;;;;;3.20;3.00;;;27.00;35.20;;;;;;10281062;28;20231;-71
2021/09/12 13:07:20;;;;;;;2.50;2.30;;;27.00;34.80;;;;;;10276170;28;20227;-71
2021/09/12 13:12:24;;;;;;;2.90;2.70;;;26.90;34.20;;;;;;10285268;28;20252;-70
2021/09/12 13:17:29;;;;;;;2.90;2.70;;;26.80;34.20;;;;;;10282457;28;20228;-71
2021/09/12 13:22:34;;;;;;;2.63;2.50;;;26.80;34.50;;;;;;10282636;28;20315;-70
2021/09/12 13:27:38;;;;;;;2.50;2.20;;;26.80;34.10;;;;;;10287767;28;20223;-72
2021/09/12 13:32:41;;;;;;;2.77;2.67;;;26.90;34.30;;;;;;10278448;28;20458;-72
2021/09/12 13:37:46;;;;;;;2.80;2.60;;;26.90;34.00;;;;;;10282064;28;20238;-70
2021/09/12 13:42:50;;;;;;;2.20;2.10;;;26.90;32.40;;;;;;10277831;28;20705;-70
2021/09/12 13:47:53;;;;;;;2.50;2.40;;;27.00;33.80;;;;;;10283091;28;20227;-71
2021/09/12 13:52:58;;;;;;;2.60;2.40;;;27.00;33.60;;;;;;10286455;28;20223;-70
2021/09/12 13:58:02;;;;;;;2.43;2.33;;;27.10;32.60;;;;;;10283400;28;20231;-71
2021/09/12 14:03:05;;;;;;;2.63;2.43;;;27.10;33.70;;;;;;10284587;28;20725;-71
2021/09/12 14:08:10;;;;;;;2.57;2.37;;;27.10;33.20;;;;;;10282759;28;20263;-71
2021/09/12 14:13:14;;;;;;;2.80;2.70;;;27.10;32.10;;;;;;10278870;28;20235;-71
2021/09/12 14:18:17;;;;;;;2.57;2.37;;;27.10;33.50;;;;;;10281122;28;20235;-71
2021/09/12 14:23:21;;;;;;;2.60;2.40;;;27.10;33.00;;;;;;10282574;28;20231;-71
2021/09/12 14:28:25;;;;;;;2.60;2.47;;;27.10;32.00;;;;;;10286424;28;20227;-71
2021/09/12 14:33:28;;;;;;;2.60;2.50;;;27.20;32.40;;;;;;10287253;28;20238;-71
2021/09/12 14:38:32;;;;;;;2.60;2.40;;;27.30;32.50;;;;;;10290738;28;20239;-71
2021/09/12 14:43:36;;;;;;;3.60;2.60;;;27.30;31.90;;;;;;10283227;28;20235;-69
2021/09/12 14:48:39;;;;;;;2.23;2.13;;;27.30;31.70;;;;;;10289049;28;20796;-70
2021/09/12 14:53:43;;;;;;;2.33;2.20;;;27.30;31.90;;;;;;10285401;28;20235;-71
2021/09/12 14:58:47;;;;;;;2.67;2.47;;;27.10;31.30;;;;;;10293758;28;20232;-71
2021/09/12 15:03:50;;;;;;;2.50;2.40;;;27.10;31.50;;;;;;10289243;28;20243;-70
2021/09/12 15:08:55;;;;;;;2.80;2.33;;;27.20;31.70;;;;;;10289795;28;20235;-70
2021/09/12 15:13:58;;;;;;;2.43;2.23;;;27.20;31.10;;;;;;10295591;28;20825;-71
2021/09/12 15:19:01;;;;;;;2.00;1.90;;;27.20;31.30;;;;;;10288270;28;20222;-71
2021/09/12 15:24:06;;;;;;;2.43;2.23;;;27.20;31.40;;;;;;10290866;28;20236;-70
2021/09/12 15:29:09;;;;;;;2.30;2.10;;;27.20;30.80;;;;;;10287710;28;20262;-70
2021/09/12 15:34:14;;;;;;;2.20;2.10;;;27.20;31.30;;;;;;10302406;28;20728;-69
2021/09/12 15:39:19;;;;;;;2.30;2.20;;;27.20;31.10;;;;;;10283070;28;20243;-70
2021/09/12 15:44:22;;;;;;;2.30;2.20;;;27.20;30.30;;;;;;10287454;28;20246;-71
2021/09/12 15:49:25;;;;;;;3.47;2.30;;;27.10;31.10;;;;;;10288129;28;20227;-70
2021/09/12 15:54:31;;;;;;;2.27;2.10;;;27.10;31.20;;;;;;10286949;28;20609;-70
2021/09/12 15:59:36;;;;;;;2.10;2.00;;;27.10;30.80;;;;;;10300919;28;20237;-70
2021/09/12 16:04:39;;;;;;;2.40;2.30;;;27.10;31.10;;;;;;10301521;28;20704;-70
2021/09/12 16:09:44;;;;;;;2.33;2.13;;;27.10;31.10;;;;;;10305416;28;20228;-70
2021/09/12 16:14:48;;;;;;;3.87;2.20;;;27.10;30.60;;;;;;10295894;28;20237;-70
2021/09/12 16:19:51;;;;;;;2.60;2.40;;;27.00;31.00;;;;;;10292830;28;20262;-70
2021/09/12 16:24:55;;;;;;;2.20;2.10;;;27.00;31.10;;;;;;10296818;28;20234;-70
2021/09/12 16:29:59;;;;;;;2.50;2.40;;;27.00;31.00;;;;;;10286152;28;20226;-69
2021/09/12 16:35:02;;;;;;;2.20;2.10;;;27.00;31.30;;;;;;10292483;28;20690;-70
2021/09/12 16:40:09;;;;;;;2.20;2.10;;;26.90;31.30;;;;;;10287750;28;20709;-70
2021/09/12 16:45:23;;;;;;;2.23;2.13;;;26.90;31.20;;;;;;10285543;28;20278;-70
2021/09/12 16:50:26;;;;;;;2.47;2.10;;;26.80;31.60;;;;;;10300149;28;20239;-70
2021/09/12 16:55:31;;;;;;;2.13;2.03;;;26.80;31.60;;;;;;10296983;28;20238;-70
2021/09/12 17:00:34;;;;;;;2.30;2.20;;;26.70;31.80;;;;;;10284454;28;20238;-69
2021/09/12 17:05:37;;;;;;;2.37;2.27;;;26.70;31.80;;;;;;10281989;28;20223;-70
2021/09/12 17:10:45;;;;;;;2.50;2.30;;;26.70;32.00;;;;;;10284910;28;20239;-70
2021/09/12 17:15:48;;;;;;;2.27;2.17;;;26.60;31.90;;;;;;10282380;28;20229;-71
2021/09/12 17:20:51;;;;;;;2.50;2.30;;;26.50;32.20;;;;;;10281515;28;20230;-70
2021/09/12 17:25:56;;;;;;;2.30;2.20;;;26.40;32.30;;;;;;10276338;28;20227;-70
2021/09/12 17:30:59;;;;;;;2.90;2.70;;;26.40;32.20;;;;;;10283463;28;20228;-69
2021/09/12 17:36:02;;;;;;;4.27;3.20;;;26.30;33.20;;;;;;10286350;28;20227;-69
2021/09/12 17:41:07;;;;;;;5.20;3.13;;;26.20;32.40;;;;;;10289123;28;20227;-70
2021/09/12 17:46:10;;;;;;;4.20;2.97;;;26.10;32.60;;;;;;10280616;28;20259;-69
2021/09/12 17:51:14;;;;;;;4.17;2.83;;;25.90;32.70;;;;;;10277917;28;20242;-69
2021/09/12 17:56:19;;;;;;;3.20;2.90;;;25.80;33.00;;;;;;10280223;28;20609;-69
2021/09/12 18:01:22;;;;;;;3.10;2.90;;;25.70;33.10;;;;;;10284883;28;20235;-69
2021/09/12 18:06:26;;;;;;;2.97;2.77;;;25.50;33.00;;;;;;10276897;28;20282;-69
2021/09/12 18:11:32;;;;;;;3.00;2.80;;;25.40;33.30;;;;;;10278938;28;20239;-70
2021/09/12 18:16:35;;;;;;;3.10;2.90;;;25.30;33.60;;;;;;10287812;28;20226;-70
2021/09/12 18:21:39;;;;;;;2.90;2.70;;;25.20;33.70;;;;;;10291695;28;20255;-69
2021/09/12 18:26:43;;;;;;;2.87;2.67;;;25.10;33.80;;;;;;10287326;28;20231;-70
2021/09/12 18:31:48;;;;;;;2.63;2.53;;;25.00;34.00;;;;;;10283695;28;20227;-70
2021/09/12 18:36:53;;;;;;;2.60;2.50;;;24.90;33.90;;;;;;10280861;28;20240;-70
2021/09/12 18:41:58;;;;;;;3.00;2.80;;;24.90;34.00;;;;;;10279005;28;20763;-70
2021/09/12 18:47:01;;;;;;;2.73;2.53;;;24.80;34.10;;;;;;10276145;28;20224;-68
2021/09/12 18:52:05;;;;;;;2.80;2.70;;;24.70;34.10;;;;;;10272724;28;20240;-70
2021/09/12 18:57:10;;;;;;;2.63;2.53;;;24.60;34.30;;;;;;10276025;28;20235;-70
2021/09/12 19:02:13;;;;;;;2.70;2.50;;;24.60;34.40;;;;;;10268920;28;20239;-71
2021/09/12 19:07:17;;;;;;;2.80;2.67;;;24.50;34.20;;;;;;10286394;28;20274;-70
2021/09/12 19:12:22;;;;;;;2.53;2.40;;;24.40;34.30;;;;;;10274551;28;20231;-71
2021/09/12 19:17:25;;;;;;;3.00;2.80;;;24.30;34.40;;;;;;10298636;28;20237;-71
2021/09/12 19:22:28;;;;;;;2.77;2.53;;;24.20;34.40;;;;;;10286774;28;20242;-70
2021/09/12 19:27:33;;;;;;;3.60;3.40;;;24.10;34.40;;;;;;10283510;28;20714;-69
2021/09/12 19:32:36;;;;;;;3.73;3.50;;;24.00;34.70;;;;;;10284623;28;20228;-70
2021/09/12 19:37:40;;;;;;;3.23;3.03;;;23.90;34.50;;;;;;10301772;28;20250;-69
2021/09/12 19:42:51;;;;;;;3.50;2.90;;;23.80;34.70;;;;;;10292640;28;20851;-70
2021/09/12 19:47:55;;;;;;;3.20;3.00;;;23.60;35.00;;;;;;10287551;28;20259;-69
2021/09/12 19:52:59;;;;;;;3.70;3.40;;;23.60;35.10;;;;;;10294179;28;20277;-69
2021/09/12 19:58:03;;;;;;;3.50;3.27;;;23.50;35.00;;;;;;10292802;28;20930;-70
2021/09/12 20:03:07;;;;;;;3.83;3.50;;;23.50;35.40;;;;;;10306749;28;20326;-69
2021/09/12 20:08:10;;;;;;;3.80;3.50;;;23.30;35.30;;;;;;10277799;28;20786;-69
2021/09/12 20:13:15;;;;;;;3.97;3.70;;;23.30;35.60;;;;;;10279966;28;20232;-69
2021/09/12 20:18:20;;;;;;;3.87;3.50;;;23.20;36.00;;;;;;10285507;28;20741;-69
2021/09/12 20:23:23;;;;;;;3.93;3.53;;;23.20;35.90;;;;;;10289462;28;20318;-71
2021/09/12 20:28:28;;;;;;;3.30;3.00;;;23.10;35.80;;;;;;10280509;28;20702;-71
2021/09/12 20:33:33;;;;;;;3.30;3.10;;;23.10;36.20;;;;;;10278307;28;20234;-72
2021/09/12 20:38:36;;;;;;;3.23;2.93;;;23.10;36.10;;;;;;10297985;28;20769;-70
2021/09/12 20:43:41;;;;;;;3.47;3.17;;;23.00;36.00;;;;;;10296473;28;20231;-70
2021/09/12 20:48:45;;;;;;;3.50;3.30;;;23.00;36.30;;;;;;10291209;28;20234;-71
2021/09/12 20:53:48;;;;;;;3.53;3.23;;;22.90;36.10;;;;;;10287561;28;20319;-71
2021/09/12 20:58:53;;;;;;;3.70;3.40;;;22.90;36.80;;;;;;10284158;28;20283;-70
2021/09/12 21:03:57;;;;;;;3.93;3.50;;;22.90;36.20;;;;;;10283961;28;20231;-71
2021/09/12 21:09:01;;;;;;;3.30;3.10;;;22.80;36.00;;;;;;10290547;28;20278;-71
2021/09/12 21:14:06;;;;;;;3.73;3.43;;;22.70;36.00;;;;;;10261863;28;20236;-72
2021/09/12 21:19:10;;;;;;;5.00;4.60;;;22.60;36.20;;;;;;10283621;28;20236;-73
2021/09/12 21:24:14;;;;;;;5.87;5.37;;;22.50;36.20;;;;;;10290715;28;20654;-72
2021/09/12 21:29:19;;;;;;;5.23;4.73;;;22.40;36.20;;;;;;10278681;28;20223;-72
2021/09/12 21:34:22;;;;;;;4.83;4.47;;;22.30;36.60;;;;;;10271888;28;20255;-74
2021/09/12 21:39:26;;;;;;;5.10;4.70;;;22.30;36.40;;;;;;10270495;28;21078;-74
2021/09/12 21:44:31;;;;;;;4.60;4.17;;;22.20;36.40;;;;;;10268393;28;20238;-74
2021/09/12 21:49:35;;;;;;;3.83;3.53;;;22.20;36.80;;;;;;10270105;28;20227;-74
2021/09/12 21:54:39;;;;;;;4.33;3.63;;;22.20;36.40;;;;;;10268091;28;20300;-73
2021/09/12 21:59:44;;;;;;;3.97;3.63;;;22.10;36.40;;;;;;10271761;28;20231;-74
2021/09/12 22:04:47;;;;;;;3.97;3.67;;;22.10;36.60;;;;;;10269210;28;21449;-73
2021/09/12 22:09:51;;;;;;;4.50;4.10;;;22.00;36.30;;;;;;10268242;28;20269;-73
2021/09/12 22:14:56;;;;;;;4.47;4.07;;;22.00;36.30;;;;;;10268515;28;20258;-74
2021/09/12 22:19:59;;;;;;;4.03;3.70;;;21.90;36.70;;;;;;10271080;28;20732;-73
2021/09/12 22:25:03;;;;;;;5.70;4.47;;;21.80;36.40;;;;;;10277481;28;20745;-72
2021/09/12 22:30:09;;;;;;;4.27;3.97;;;21.60;36.50;;;;;;10280173;28;20338;-73
2021/09/12 22:35:12;;;;;;;5.67;5.10;;;21.50;37.10;;;;;;10275633;28;20231;-73
2021/09/12 22:40:16;;;;;;;5.70;5.20;;;21.40;37.00;;;;;;10272612;28;20713;-72
2021/09/12 22:45:20;;;;;;;4.90;4.50;;;21.30;37.20;;;;;;10275619;28;20229;-72
2021/09/12 22:50:24;;;;;;;5.23;4.73;;;21.30;37.60;;;;;;10285403;28;20680;-72
2021/09/12 22:55:27;;;;;;;4.67;4.27;;;21.20;37.60;;;;;;10284671;28;20231;-72
2021/09/12 23:00:31;;;;;;;4.47;4.17;;;21.20;37.60;;;;;;10281933;28;20238;-72
2021/09/12 23:05:35;;;;;;;4.80;4.50;;;21.10;37.50;;;;;;10284074;28;20729;-72
2021/09/12 23:10:38;;;;;;;4.77;4.37;;;21.10;37.50;;;;;;10288753;28;20230;-72
2021/09/12 23:15:43;;;;;;;4.83;4.43;;;21.00;37.40;;;;;;10283294;28;20228;-72
2021/09/12 23:20:46;;;;;;;5.20;4.77;;;21.00;37.50;;;;;;10283625;28;20640;-72
2021/09/12 23:25:49;;;;;;;5.27;4.87;;;20.90;37.30;;;;;;10286597;28;20224;-72
2021/09/12 23:30:54;;;;;;;5.87;5.37;;;20.90;37.50;;;;;;10289605;28;20705;-72
2021/09/12 23:35:57;;;;;;;5.97;5.47;;;20.80;38.00;;;;;;10287397;28;20743;-72
2021/09/12 23:41:00;;;;;;;5.13;4.73;;;20.80;37.30;;;;;;10284048;28;20243;-72
2021/09/12 23:46:05;;;;;;;4.80;4.40;;;20.70;37.70;;;;;;10271390;28;20238;-72
2021/09/12 23:51:08;;;;;;;4.50;4.13;;;20.60;38.00;;;;;;10275149;28;20231;-72
2021/09/12 23:56:11;;;;;;;5.70;5.20;;;20.60;38.00;;;;;;10282254;28;20227;-72
